sensor_id;sensor_type;location;lat;lon;timestamp;pressure;altitude;pressure_sealevel;temperature;humidity
7614;BME280;3848;42.016;23.098;2024-02-14T00:02:17;96826.84;;;8.01;100.00
7614;BME280;3848;42.016;23.098;2024-02-14T00:04:44;96826.88;;;7.93;100.00
7614;BME280;3848;42.016;23.098;2024-02-14T00:07:11;96682.13;;;7.06;100.00
7614;BME280;3848;42.016;23.098;2024-02-14T00:09:38;96826.88;;;7.93;100.00
7614;BME280;3848;42.016;23.098;2024-02-14T00:12:07;96824.34;;;7.98;100.00
7614;BME280;3848;42.016;23.098;2024-02-14T00:14:34;96826.03;;;7.98;100.00
7614;BME280;3848;42.016;23.098;2024-02-14T00:17:01;96828.56;;;7.93;100.00
7614;BME280;3848;42.016;23.098;2024-02-14T00:19:29;96826.06;;;7.91;100.00
7614;BME280;3848;42.016;23.098;2024-02-14T00:21:56;96834.47;;;7.87;100.00
7614;BME280;3848;42.016;23.098;2024-02-14T00:24:23;96839.53;;;7.87;100.00
7614;BME280;3848;42.016;23.098;2024-02-14T00:26:52;96841.22;;;7.87;100.00
7614;BME280;3848;42.016;23.098;2024-02-14T00:29:21;96837.03;;;7.81;100.00
7614;BME280;3848;42.016;23.098;2024-02-14T00:31:48;96837.88;;;7.80;100.00
7614;BME280;3848;42.016;23.098;2024-02-14T00:34:15;96839.56;;;7.77;100.00
7614;BME280;3848;42.016;23.098;2024-02-14T00:36:42;96835.38;;;7.71;100.00
7614;BME280;3848;42.016;23.098;2024-02-14T00:39:09;96830.31;;;7.71;100.00
7614;BME280;3848;42.016;23.098;2024-02-14T00:41:36;96835.38;;;7.71;100.00
7614;BME280;3848;42.016;23.098;2024-02-14T00:44:03;96835.34;;;7.74;100.00
7614;BME280;3848;42.016;23.098;2024-02-14T00:46:31;96832.00;;;7.72;100.00
7614;BME280;3848;42.016;23.098;2024-02-14T00:48:58;96840.41;;;7.68;100.00
7614;BME280;3848;42.016;23.098;2024-02-14T00:51:26;96833.66;;;7.70;100.00
7614;BME280;3848;42.016;23.098;2024-02-14T00:53:53;96832.00;;;7.72;100.00
7614;BME280;3848;42.016;23.098;2024-02-14T00:56:20;96825.25;;;7.74;100.00
7614;BME280;3848;42.016;23.098;2024-02-14T00:58:48;96829.47;;;7.72;100.00
7614;BME280;3848;42.016;23.098;2024-02-14T01:01:16;96828.63;;;7.72;100.00
7614;BME280;3848;42.016;23.098;2024-02-14T01:03:44;96815.16;;;7.59;100.00
7614;BME280;3848;42.016;23.098;2024-02-14T01:06:11;96837.88;;;7.74;100.00
7614;BME280;3848;42.016;23.098;2024-02-14T01:08:39;96842.94;;;7.73;100.00
7614;BME280;3848;42.016;23.098;2024-02-14T01:11:07;96817.69;;;7.56;100.00
7614;BME280;3848;42.016;23.098;2024-02-14T01:13:34;96841.25;;;7.67;100.00
7614;BME280;3848;42.016;23.098;2024-02-14T01:16:01;96837.88;;;7.63;100.00
7614;BME280;3848;42.016;23.098;2024-02-14T01:18:28;96848.84;;;7.69;100.00
7614;BME280;3848;42.016;23.098;2024-02-14T01:20:56;96851.34;;;7.69;100.00
7614;BME280;3848;42.016;23.098;2024-02-14T01:23:24;96847.13;;;7.69;100.00
7614;BME280;3848;42.016;23.098;2024-02-14T01:25:51;96853.91;;;7.73;100.00
7614;BME280;3848;42.016;23.098;2024-02-14T01:28:20;96859.81;;;7.71;100.00
7614;BME280;3848;42.016;23.098;2024-02-14T01:30:47;96859.81;;;7.71;100.00
7614;BME280;3848;42.016;23.098;2024-02-14T01:33:14;96858.09;;;7.70;100.00
7614;BME280;3848;42.016;23.098;2024-02-14T01:35:42;96853.88;;;7.69;100.00
7614;BME280;3848;42.016;23.098;2024-02-14T01:38:11;96850.53;;;7.71;100.00
7614;BME280;3848;42.016;23.098;2024-02-14T01:40:41;96857.25;;;7.66;100.00
7614;BME280;3848;42.016;23.098;2024-02-14T01:43:09;96858.13;;;7.63;100.00
7614;BME280;3848;42.016;23.098;2024-02-14T01:45:37;96853.06;;;7.60;100.00
7614;BME280;3848;42.016;23.098;2024-02-14T01:48:05;96853.06;;;7.59;100.00
7614;BME280;3848;42.016;23.098;2024-02-14T01:50:33;96693.09;;;6.56;100.00
7614;BME280;3848;42.016;23.098;2024-02-14T01:53:01;96853.06;;;7.47;100.00
7614;BME280;3848;42.016;23.098;2024-02-14T01:55:30;96850.53;;;7.47;100.00
7614;BME280;3848;42.016;23.098;2024-02-14T01:57:58;96855.59;;;7.47;100.00
7614;BME280;3848;42.016;23.098;2024-02-14T02:00:25;96854.75;;;7.39;100.00
7614;BME280;3848;42.016;23.098;2024-02-14T02:02:53;96857.28;;;7.37;100.00
7614;BME280;3848;42.016;23.098;2024-02-14T02:05:21;96859.81;;;7.34;100.00
7614;BME280;3848;42.016;23.098;2024-02-14T02:07:48;96846.34;;;7.29;100.00
7614;BME280;3848;42.016;23.098;2024-02-14T02:10:16;96866.56;;;7.37;100.00
7614;BME280;3848;42.016;23.098;2024-02-14T02:12:44;96856.47;;;7.33;100.00
7614;BME280;3848;42.016;23.098;2024-02-14T02:15:11;96847.19;;;7.20;100.00
7614;BME280;3848;42.016;23.098;2024-02-14T02:17:40;96853.91;;;7.24;100.00
7614;BME280;3848;42.016;23.098;2024-02-14T02:20:08;96862.38;;;7.29;100.00
7614;BME280;3848;42.016;23.098;2024-02-14T02:22:35;96862.34;;;7.34;100.00
7614;BME280;3848;42.016;23.098;2024-02-14T02:25:05;96870.78;;;7.38;100.00
7614;BME280;3848;42.016;23.098;2024-02-14T02:27:33;96880.03;;;7.37;100.00
7614;BME280;3848;42.016;23.098;2024-02-14T02:30:04;96871.63;;;7.35;100.00
7614;BME280;3848;42.016;23.098;2024-02-14T02:32:31;96830.31;;;7.07;100.00
7614;BME280;3848;42.016;23.098;2024-02-14T02:34:58;96880.88;;;7.31;100.00
7614;BME280;3848;42.016;23.098;2024-02-14T02:37:25;96870.78;;;7.34;100.00
7614;BME280;3848;42.016;23.098;2024-02-14T02:39:55;96858.16;;;7.31;100.00
7614;BME280;3848;42.016;23.098;2024-02-14T02:42:23;96864.88;;;7.32;100.00
7614;BME280;3848;42.016;23.098;2024-02-14T02:44:51;96862.34;;;7.32;100.00
7614;BME280;3848;42.016;23.098;2024-02-14T02:47:18;96857.31;;;7.29;100.00
7614;BME280;3848;42.016;23.098;2024-02-14T02:49:45;96869.94;;;7.34;100.00
7614;BME280;3848;42.016;23.098;2024-02-14T02:52:12;96859.84;;;7.29;100.00
7614;BME280;3848;42.016;23.098;2024-02-14T02:54:39;96878.34;;;7.36;100.00
7614;BME280;3848;42.016;23.098;2024-02-14T02:57:09;96869.09;;;7.30;100.00
7614;BME280;3848;42.016;23.098;2024-02-14T02:59:37;96893.53;;;7.39;100.00
7614;BME280;3848;42.016;23.098;2024-02-14T03:02:08;96896.03;;;7.41;100.00
7614;BME280;3848;42.016;23.098;2024-02-14T03:04:37;96893.50;;;7.42;100.00
7614;BME280;3848;42.016;23.098;2024-02-14T03:07:04;96892.69;;;7.37;100.00
7614;BME280;3848;42.016;23.098;2024-02-14T03:09:34;96902.78;;;7.42;100.00
7614;BME280;3848;42.016;23.098;2024-02-14T03:12:01;96906.16;;;7.45;100.00
7614;BME280;3848;42.016;23.098;2024-02-14T03:14:29;96910.38;;;7.46;100.00
7614;BME280;3848;42.016;23.098;2024-02-14T03:16:59;96905.31;;;7.46;100.00
7614;BME280;3848;42.016;23.098;2024-02-14T03:19:27;96918.78;;;7.48;100.00
7614;BME280;3848;42.016;23.098;2024-02-14T03:21:54;96907.84;;;7.45;100.00
7614;BME280;3848;42.016;23.098;2024-02-14T03:24:21;96864.84;;;7.25;100.00
7614;BME280;3848;42.016;23.098;2024-02-14T03:26:51;96905.31;;;7.57;100.00
7614;BME280;3848;42.016;23.098;2024-02-14T03:29:19;96913.75;;;7.59;100.00
7614;BME280;3848;42.016;23.098;2024-02-14T03:31:46;96908.69;;;7.47;100.00
7614;BME280;3848;42.016;23.098;2024-02-14T03:34:14;96905.31;;;7.49;100.00
7614;BME280;3848;42.016;23.098;2024-02-14T03:36:41;96918.81;;;7.57;100.00
7614;BME280;3848;42.016;23.098;2024-02-14T03:39:08;96917.97;;;7.58;100.00
7614;BME280;3848;42.016;23.098;2024-02-14T03:41:37;96904.47;;;7.56;100.00
7614;BME280;3848;42.016;23.098;2024-02-14T03:44:04;96912.06;;;7.59;100.00
7614;BME280;3848;42.016;23.098;2024-02-14T03:46:32;96922.19;;;7.61;100.00
7614;BME280;3848;42.016;23.098;2024-02-14T03:49:01;96920.47;;;7.63;100.00
7614;BME280;3848;42.016;23.098;2024-02-14T03:51:29;96921.34;;;7.62;100.00
7614;BME280;3848;42.016;23.098;2024-02-14T03:53:56;96916.28;;;7.62;100.00
7614;BME280;3848;42.016;23.098;2024-02-14T03:56:24;96917.13;;;7.56;100.00
7614;BME280;3848;42.016;23.098;2024-02-14T03:58:51;96927.22;;;7.61;100.00
7614;BME280;3848;42.016;23.098;2024-02-14T04:01:18;96928.06;;;7.61;100.00
7614;BME280;3848;42.016;23.098;2024-02-14T04:03:46;96928.91;;;7.63;100.00
7614;BME280;3848;42.016;23.098;2024-02-14T04:06:14;96917.13;;;7.53;100.00
7614;BME280;3848;42.016;23.098;2024-02-14T04:08:43;96942.38;;;7.67;100.00
7614;BME280;3848;42.016;23.098;2024-02-14T04:11:10;96942.41;;;7.65;100.00
7614;BME280;3848;42.016;23.098;2024-02-14T04:13:39;96939.03;;;7.62;100.00
7614;BME280;3848;42.016;23.098;2024-02-14T04:16:06;96934.81;;;7.61;100.00
7614;BME280;3848;42.016;23.098;2024-02-14T04:18:33;96937.34;;;7.61;100.00
7614;BME280;3848;42.016;23.098;2024-02-14T04:21:00;96933.13;;;7.61;100.00
7614;BME280;3848;42.016;23.098;2024-02-14T04:23:29;96933.13;;;7.60;100.00
7614;BME280;3848;42.016;23.098;2024-02-14T04:25:57;96920.50;;;7.51;100.00
7614;BME280;3848;42.016;23.098;2024-02-14T04:28:24;96939.88;;;7.61;100.00
7614;BME280;3848;42.016;23.098;2024-02-14T04:30:51;96933.97;;;7.57;100.00
7614;BME280;3848;42.016;23.098;2024-02-14T04:33:19;96932.28;;;7.59;100.00
7614;BME280;3848;42.016;23.098;2024-02-14T04:35:47;96940.72;;;7.71;100.00
7614;BME280;3848;42.016;23.098;2024-02-14T04:38:14;96942.38;;;7.70;100.00
7614;BME280;3848;42.016;23.098;2024-02-14T04:40:41;96944.09;;;7.73;100.00
7614;BME280;3848;42.016;23.098;2024-02-14T04:43:10;96944.94;;;7.76;100.00
7614;BME280;3848;42.016;23.098;2024-02-14T04:45:37;96947.47;;;7.76;100.00
7614;BME280;3848;42.016;23.098;2024-02-14T04:48:05;96955.91;;;7.77;100.00
7614;BME280;3848;42.016;23.098;2024-02-14T04:50:33;96950.84;;;7.77;100.00
7614;BME280;3848;42.016;23.098;2024-02-14T04:53:00;96963.47;;;7.81;100.00
7614;BME280;3848;42.016;23.098;2024-02-14T04:55:27;96960.94;;;7.83;100.00
7614;BME280;3848;42.016;23.098;2024-02-14T04:57:54;96967.69;;;7.79;100.00
7614;BME280;3848;42.016;23.098;2024-02-14T05:00:22;96965.19;;;7.76;100.00
7614;BME280;3848;42.016;23.098;2024-02-14T05:02:49;96968.53;;;7.78;100.00
7614;BME280;3848;42.016;23.098;2024-02-14T05:05:16;96971.91;;;7.80;100.00
7614;BME280;3848;42.016;23.098;2024-02-14T05:07:45;96975.28;;;7.82;100.00
7614;BME280;3848;42.016;23.098;2024-02-14T05:10:13;96951.69;;;7.74;100.00
7614;BME280;3848;42.016;23.098;2024-02-14T05:12:41;96972.75;;;7.87;100.00
7614;BME280;3848;42.016;23.098;2024-02-14T05:15:08;96975.28;;;7.85;100.00
7614;BME280;3848;42.016;23.098;2024-02-14T05:17:41;96982.84;;;7.90;100.00
7614;BME280;3848;42.016;23.098;2024-02-14T05:20:09;96986.25;;;7.92;100.00
7614;BME280;3848;42.016;23.098;2024-02-14T05:22:36;96982.03;;;7.89;100.00
7614;BME280;3848;42.016;23.098;2024-02-14T05:25:04;96994.66;;;7.89;100.00
7614;BME280;3848;42.016;23.098;2024-02-14T05:27:33;96952.50;;;7.69;100.00
7614;BME280;3848;42.016;23.098;2024-02-14T05:30:00;96980.34;;;7.85;100.00
7614;BME280;3848;42.016;23.098;2024-02-14T05:32:31;96982.03;;;7.83;100.00
7614;BME280;3848;42.016;23.098;2024-02-14T05:34:59;96992.13;;;7.89;100.00
7614;BME280;3848;42.016;23.098;2024-02-14T05:37:27;96966.00;;;7.77;100.00
7614;BME280;3848;42.016;23.098;2024-02-14T05:39:54;96986.25;;;7.81;100.00
7614;BME280;3848;42.016;23.098;2024-02-14T05:42:21;96938.16;;;7.43;100.00
7614;BME280;3848;42.016;23.098;2024-02-14T05:44:55;96997.22;;;7.77;100.00
7614;BME280;3848;42.016;23.098;2024-02-14T05:47:28;96987.09;;;7.71;100.00
7614;BME280;3848;42.016;23.098;2024-02-14T05:49:55;96997.22;;;7.71;100.00
7614;BME280;3848;42.016;23.098;2024-02-14T05:52:25;96946.59;;;7.38;100.00
7614;BME280;3848;42.016;23.098;2024-02-14T05:54:53;97001.41;;;7.69;100.00
7614;BME280;3848;42.016;23.098;2024-02-14T05:57:22;96998.03;;;7.65;100.00
7614;BME280;3848;42.016;23.098;2024-02-14T05:59:55;96997.19;;;7.62;100.00
7614;BME280;3848;42.016;23.098;2024-02-14T06:02:24;97017.41;;;7.68;100.00
7614;BME280;3848;42.016;23.098;2024-02-14T06:04:57;97003.09;;;7.64;100.00
7614;BME280;3848;42.016;23.098;2024-02-14T06:07:30;97008.97;;;7.63;100.00
7614;BME280;3848;42.016;23.098;2024-02-14T06:09:57;96992.97;;;7.64;100.00
7614;BME280;3848;42.016;23.098;2024-02-14T06:12:25;97008.97;;;7.69;100.00
7614;BME280;3848;42.016;23.098;2024-02-14T06:14:52;96966.81;;;7.38;100.00
7614;BME280;3848;42.016;23.098;2024-02-14T06:17:19;97015.75;;;7.75;100.00
7614;BME280;3848;42.016;23.098;2024-02-14T06:19:46;97011.53;;;7.71;100.00
7614;BME280;3848;42.016;23.098;2024-02-14T06:22:13;96952.50;;;7.37;100.00
7614;BME280;3848;42.016;23.098;2024-02-14T06:24:42;97018.28;;;7.76;100.00
7614;BME280;3848;42.016;23.098;2024-02-14T06:27:09;97028.41;;;7.78;100.00
7614;BME280;3848;42.016;23.098;2024-02-14T06:29:36;97032.63;;;7.76;100.00
7614;BME280;3848;42.016;23.098;2024-02-14T06:32:04;97029.25;;;7.77;100.00
7614;BME280;3848;42.016;23.098;2024-02-14T06:34:38;97030.94;;;7.79;100.00
7614;BME280;3848;42.016;23.098;2024-02-14T06:37:33;97041.03;;;7.76;100.00
7614;BME280;3848;42.016;23.098;2024-02-14T06:40:26;97036.84;;;7.72;100.00
7614;BME280;3848;42.016;23.098;2024-02-14T06:42:59;97043.56;;;7.75;100.00
7614;BME280;3848;42.016;23.098;2024-02-14T06:45:27;97043.53;;;7.69;100.00
7614;BME280;3848;42.016;23.098;2024-02-14T06:48:04;97035.09;;;7.67;100.00
7614;BME280;3848;42.016;23.098;2024-02-14T06:50:33;97021.63;;;7.63;100.00
7614;BME280;3848;42.016;23.098;2024-02-14T06:53:12;97034.28;;;7.68;100.00
7614;BME280;3848;42.016;23.098;2024-02-14T06:55:43;97032.59;;;7.60;100.00
7614;BME280;3848;42.016;23.098;2024-02-14T06:58:11;97041.84;;;7.61;100.00
7614;BME280;3848;42.016;23.098;2024-02-14T07:00:40;96998.84;;;7.36;100.00
7614;BME280;3848;42.016;23.098;2024-02-14T07:03:13;97035.94;;;7.61;100.00
7614;BME280;3848;42.016;23.098;2024-02-14T07:05:43;97062.94;;;7.68;100.00
7614;BME280;3848;42.016;23.098;2024-02-14T07:08:10;97044.38;;;7.63;100.00
7614;BME280;3848;42.016;23.098;2024-02-14T07:10:37;97059.59;;;7.72;100.00
7614;BME280;3848;42.016;23.098;2024-02-14T07:13:06;97072.25;;;7.78;100.00
7614;BME280;3848;42.016;23.098;2024-02-14T07:15:33;97060.44;;;7.76;100.00
7614;BME280;3848;42.016;23.098;2024-02-14T07:18:00;97068.03;;;7.80;100.00
7614;BME280;3848;42.016;23.098;2024-02-14T07:20:27;97068.88;;;7.90;100.00
7614;BME280;3848;42.016;23.098;2024-02-14T07:22:55;97068.88;;;7.90;100.00
7614;BME280;3848;42.016;23.098;2024-02-14T07:25:22;97066.34;;;7.88;100.00
7614;BME280;3848;42.016;23.098;2024-02-14T07:27:49;97049.50;;;7.93;100.00
7614;BME280;3848;42.016;23.098;2024-02-14T07:30:18;97089.97;;;7.98;100.00
7614;BME280;3848;42.016;23.098;2024-02-14T07:32:45;97073.13;;;7.94;100.00
7614;BME280;3848;42.016;23.098;2024-02-14T07:35:12;97039.34;;;7.75;100.00
7614;BME280;3848;42.016;23.098;2024-02-14T07:37:39;97095.91;;;8.12;100.00
7614;BME280;3848;42.016;23.098;2024-02-14T07:40:08;97082.41;;;8.18;100.00
7614;BME280;3848;42.016;23.098;2024-02-14T07:42:35;97093.38;;;8.29;100.00
7614;BME280;3848;42.016;23.098;2024-02-14T07:45:03;97087.47;;;8.30;100.00
7614;BME280;3848;42.016;23.098;2024-02-14T07:47:32;97089.16;;;8.22;100.00
7614;BME280;3848;42.016;23.098;2024-02-14T07:49:59;97090.00;;;8.18;100.00
7614;BME280;3848;42.016;23.098;2024-02-14T07:52:26;97079.84;;;8.12;100.00
7614;BME280;3848;42.016;23.098;2024-02-14T07:54:53;97044.41;;;7.87;100.00
7614;BME280;3848;42.016;23.098;2024-02-14T07:57:21;97097.56;;;8.06;100.00
7614;BME280;3848;42.016;23.098;2024-02-14T07:59:49;97104.34;;;8.14;100.00
7614;BME280;3848;42.016;23.098;2024-02-14T08:02:17;97099.28;;;8.20;100.00
7614;BME280;3848;42.016;23.098;2024-02-14T08:04:45;97096.75;;;8.16;100.00
7614;BME280;3848;42.016;23.098;2024-02-14T08:07:12;97117.84;;;8.18;100.00
7614;BME280;3848;42.016;23.098;2024-02-14T08:09:39;97107.69;;;8.10;100.00
7614;BME280;3848;42.016;23.098;2024-02-14T08:12:07;97127.97;;;8.18;100.00
7614;BME280;3848;42.016;23.098;2024-02-14T08:14:37;97117.00;;;8.22;100.00
7614;BME280;3848;42.016;23.098;2024-02-14T08:17:04;97120.38;;;8.21;100.00
7614;BME280;3848;42.016;23.098;2024-02-14T08:19:31;97123.75;;;8.24;100.00
7614;BME280;3848;42.016;23.098;2024-02-14T08:22:03;97108.59;;;8.38;100.00
7614;BME280;3848;42.016;23.098;2024-02-14T08:24:31;97114.50;;;8.51;100.00
7614;BME280;3848;42.016;23.098;2024-02-14T08:26:58;97101.84;;;8.49;100.00
7614;BME280;3848;42.016;23.098;2024-02-14T08:29:25;97128.00;;;8.82;100.00
7614;BME280;3848;42.016;23.098;2024-02-14T08:31:52;97123.75;;;9.01;100.00
7614;BME280;3848;42.016;23.098;2024-02-14T08:34:19;97109.34;;;9.13;100.00
7614;BME280;3848;42.016;23.098;2024-02-14T08:36:47;97109.28;;;9.30;100.00
7614;BME280;3848;42.016;23.098;2024-02-14T08:39:24;97132.06;;;9.47;100.00
7614;BME280;3848;42.016;23.098;2024-02-14T08:41:51;97122.72;;;9.55;100.00
7614;BME280;3848;42.016;23.098;2024-02-14T08:44:18;97143.81;;;9.66;100.00
7614;BME280;3848;42.016;23.098;2024-02-14T08:46:47;97137.03;;;9.68;100.00
7614;BME280;3848;42.016;23.098;2024-02-14T08:49:14;97144.69;;;9.58;100.00
7614;BME280;3848;42.016;23.098;2024-02-14T08:51:41;97136.25;;;9.59;100.00
7614;BME280;3848;42.016;23.098;2024-02-14T08:54:11;97153.97;;;9.63;100.00
7614;BME280;3848;42.016;23.098;2024-02-14T08:56:40;97156.50;;;9.63;100.00
7614;BME280;3848;42.016;23.098;2024-02-14T08:59:07;97148.97;;;9.45;100.00
7614;BME280;3848;42.016;23.098;2024-02-14T09:01:36;97140.59;;;9.14;100.00
7614;BME280;3848;42.016;23.098;2024-02-14T09:04:03;97151.59;;;9.18;100.00
7614;BME280;3848;42.016;23.098;2024-02-14T09:06:30;97160.88;;;9.14;100.00
7614;BME280;3848;42.016;23.098;2024-02-14T09:08:58;97164.25;;;9.13;100.00
7614;BME280;3848;42.016;23.098;2024-02-14T09:11:25;97166.81;;;9.18;100.00
7614;BME280;3848;42.016;23.098;2024-02-14T09:13:53;97152.44;;;9.12;100.00
7614;BME280;3848;42.016;23.098;2024-02-14T09:16:25;97177.81;;;8.98;100.00
7614;BME280;3848;42.016;23.098;2024-02-14T09:18:51;97169.34;;;8.93;100.00
7614;BME280;3848;42.016;23.098;2024-02-14T09:21:18;97175.28;;;9.00;100.00
7614;BME280;3848;42.016;23.098;2024-02-14T09:23:47;97177.81;;;9.04;100.00
7614;BME280;3848;42.016;23.098;2024-02-14T09:26:14;97198.06;;;9.10;100.00
7614;BME280;3848;42.016;23.098;2024-02-14T09:28:42;97192.97;;;9.10;100.00
7614;BME280;3848;42.016;23.098;2024-02-14T09:31:10;97188.78;;;8.99;100.00
7614;BME280;3848;42.016;23.098;2024-02-14T09:33:38;97187.94;;;9.04;100.00
7614;BME280;3848;42.016;23.098;2024-02-14T09:36:06;97180.31;;;9.10;100.00
7614;BME280;3848;42.016;23.098;2024-02-14T09:38:33;97180.31;;;9.18;100.00
7614;BME280;3848;42.016;23.098;2024-02-14T09:41:06;97177.75;;;9.27;100.00
7614;BME280;3848;42.016;23.098;2024-02-14T09:43:38;97172.66;;;9.38;100.00
7614;BME280;3848;42.016;23.098;2024-02-14T09:46:07;97184.47;;;9.43;100.00
7614;BME280;3848;42.016;23.098;2024-02-14T09:48:37;97165.91;;;9.41;100.00
7614;BME280;3848;42.016;23.098;2024-02-14T09:51:05;97159.09;;;9.46;100.00
7614;BME280;3848;42.016;23.098;2024-02-14T09:53:34;97187.66;;;9.93;100.00
7614;BME280;3848;42.016;23.098;2024-02-14T09:56:02;97189.41;;;9.78;100.00
7614;BME280;3848;42.016;23.098;2024-02-14T09:58:30;97177.66;;;9.65;100.00
7614;BME280;3848;42.016;23.098;2024-02-14T10:00:58;97179.28;;;9.75;100.00
7614;BME280;3848;42.016;23.098;2024-02-14T10:03:25;97167.28;;;10.08;100.00
7614;BME280;3848;42.016;23.098;2024-02-14T10:05:54;97167.00;;;10.57;97.02
7614;BME280;3848;42.016;23.098;2024-02-14T10:08:22;97161.66;;;10.90;92.02
7614;BME280;3848;42.016;23.098;2024-02-14T10:10:49;97175.53;;;11.42;86.23
7614;BME280;3848;42.016;23.098;2024-02-14T10:13:16;97173.78;;;11.48;82.10
7614;BME280;3848;42.016;23.098;2024-02-14T10:15:43;97168.06;;;11.28;84.27
7614;BME280;3848;42.016;23.098;2024-02-14T10:18:10;97158.78;;;11.99;80.33
7614;BME280;3848;42.016;23.098;2024-02-14T10:20:37;97172.44;;;12.54;74.79
7614;BME280;3848;42.016;23.098;2024-02-14T10:23:10;97150.34;;;12.54;74.28
7614;BME280;3848;42.016;23.098;2024-02-14T10:25:38;97152.50;;;12.78;73.70
7614;BME280;3848;42.016;23.098;2024-02-14T10:28:05;97155.16;;;12.72;72.06
7614;BME280;3848;42.016;23.098;2024-02-14T10:30:34;97177.72;;;12.41;72.77
7614;BME280;3848;42.016;23.098;2024-02-14T10:33:04;97166.25;;;12.13;73.72
7614;BME280;3848;42.016;23.098;2024-02-14T10:35:35;97168.31;;;11.83;77.37
7614;BME280;3848;42.016;23.098;2024-02-14T10:38:04;97168.81;;;11.36;78.74
7614;BME280;3848;42.016;23.098;2024-02-14T10:40:34;97175.19;;;10.92;84.37
7614;BME280;3848;42.016;23.098;2024-02-14T10:43:04;97173.41;;;11.00;88.58
7614;BME280;3848;42.016;23.098;2024-02-14T10:45:31;97152.63;;;11.43;85.82
7614;BME280;3848;42.016;23.098;2024-02-14T10:48:00;97170.91;;;11.77;82.26
7614;BME280;3848;42.016;23.098;2024-02-14T10:50:28;97182.75;;;11.83;83.88
7614;BME280;3848;42.016;23.098;2024-02-14T10:53:00;97175.88;;;11.91;82.55
7614;BME280;3848;42.016;23.098;2024-02-14T10:55:30;97169.41;;;12.30;79.60
7614;BME280;3848;42.016;23.098;2024-02-14T10:57:59;97168.88;;;12.64;73.75
7614;BME280;3848;42.016;23.098;2024-02-14T11:00:27;97164.63;;;12.64;73.97
7614;BME280;3848;42.016;23.098;2024-02-14T11:02:55;97171.47;;;12.02;72.82
7614;BME280;3848;42.016;23.098;2024-02-14T11:05:23;97161.75;;;11.61;77.46
7614;BME280;3848;42.016;23.098;2024-02-14T11:07:51;97170.69;;;11.20;76.25
7614;BME280;3848;42.016;23.098;2024-02-14T11:10:20;97195.63;;;10.83;84.09
7614;BME280;3848;42.016;23.098;2024-02-14T11:12:48;97175.66;;;10.31;86.14
7614;BME280;3848;42.016;23.098;2024-02-14T11:15:19;97178.97;;;10.38;95.68
7614;BME280;3848;42.016;23.098;2024-02-14T11:17:47;97189.22;;;10.18;92.52
7614;BME280;3848;42.016;23.098;2024-02-14T11:20:16;97181.63;;;10.17;92.21
7614;BME280;3848;42.016;23.098;2024-02-14T11:22:55;97176.56;;;10.14;92.14
7614;BME280;3848;42.016;23.098;2024-02-14T11:25:24;97189.28;;;10.12;90.39
7614;BME280;3848;42.016;23.098;2024-02-14T11:27:55;97187.63;;;9.99;92.75
7614;BME280;3848;42.016;23.098;2024-02-14T11:30:31;97177.53;;;9.90;93.01
7614;BME280;3848;42.016;23.098;2024-02-14T11:33:13;97178.31;;;9.99;95.38
7614;BME280;3848;42.016;23.098;2024-02-14T11:35:41;97174.09;;;9.97;97.50
7614;BME280;3848;42.016;23.098;2024-02-14T11:38:09;97186.91;;;9.80;96.59
7614;BME280;3848;42.016;23.098;2024-02-14T11:40:36;97181.84;;;9.69;100.00
7614;BME280;3848;42.016;23.098;2024-02-14T11:43:04;97189.44;;;9.80;100.00
7614;BME280;3848;42.016;23.098;2024-02-14T11:45:33;97192.81;;;9.74;98.70
7614;BME280;3848;42.016;23.098;2024-02-14T11:48:00;97181.00;;;9.67;97.60
7614;BME280;3848;42.016;23.098;2024-02-14T11:50:27;97180.97;;;9.80;99.90
7614;BME280;3848;42.016;23.098;2024-02-14T11:52:55;97168.22;;;9.92;100.00
7614;BME280;3848;42.016;23.098;2024-02-14T11:55:27;97173.28;;;9.92;95.60
7614;BME280;3848;42.016;23.098;2024-02-14T11:57:55;97174.91;;;10.08;96.80
7614;BME280;3848;42.016;23.098;2024-02-14T12:00:22;97169.72;;;10.32;94.74
7614;BME280;3848;42.016;23.098;2024-02-14T12:02:52;97156.16;;;10.32;87.79
7614;BME280;3848;42.016;23.098;2024-02-14T12:05:20;97143.53;;;10.18;86.23
7614;BME280;3848;42.016;23.098;2024-02-14T12:07:48;97160.34;;;10.37;88.32
7614;BME280;3848;42.016;23.098;2024-02-14T12:10:15;97163.03;;;10.13;87.28
7614;BME280;3848;42.016;23.098;2024-02-14T12:12:50;97157.13;;;10.09;88.79
7614;BME280;3848;42.016;23.098;2024-02-14T12:15:17;97161.31;;;10.24;89.03
7614;BME280;3848;42.016;23.098;2024-02-14T12:17:47;97164.72;;;10.14;87.00
7614;BME280;3848;42.016;23.098;2024-02-14T12:20:16;97147.81;;;10.08;84.34
7614;BME280;3848;42.016;23.098;2024-02-14T12:22:43;97087.97;;;9.69;86.12
7614;BME280;3848;42.016;23.098;2024-02-14T12:25:10;97122.44;;;10.08;88.16
7614;BME280;3848;42.016;23.098;2024-02-14T12:27:37;97149.50;;;10.09;86.13
7614;BME280;3848;42.016;23.098;2024-02-14T12:30:09;97155.50;;;10.01;90.02
7614;BME280;3848;42.016;23.098;2024-02-14T12:32:36;97145.34;;;9.96;85.00
7614;BME280;3848;42.016;23.098;2024-02-14T12:35:07;97150.53;;;9.80;89.08
7614;BME280;3848;42.016;23.098;2024-02-14T12:37:35;97160.69;;;9.80;88.18
7614;BME280;3848;42.016;23.098;2024-02-14T12:40:03;97158.97;;;9.78;87.31
7614;BME280;3848;42.016;23.098;2024-02-14T12:42:31;97165.75;;;9.80;92.34
7614;BME280;3848;42.016;23.098;2024-02-14T12:44:58;97175.97;;;9.64;90.77
7614;BME280;3848;42.016;23.098;2024-02-14T12:47:25;97166.69;;;9.53;91.91
7614;BME280;3848;42.016;23.098;2024-02-14T12:49:57;97167.56;;;9.44;90.33
7614;BME280;3848;42.016;23.098;2024-02-14T12:52:25;97124.53;;;9.13;94.89
7614;BME280;3848;42.016;23.098;2024-02-14T12:54:54;97176.84;;;9.53;97.05
7614;BME280;3848;42.016;23.098;2024-02-14T12:57:21;97174.28;;;9.57;94.64
7614;BME280;3848;42.016;23.098;2024-02-14T12:59:48;97182.72;;;9.62;95.24
7614;BME280;3848;42.016;23.098;2024-02-14T13:02:15;97175.16;;;9.52;92.53
7614;BME280;3848;42.016;23.098;2024-02-14T13:04:44;97176.03;;;9.35;94.35
7614;BME280;3848;42.016;23.098;2024-02-14T13:07:14;97171.88;;;9.21;97.45
7614;BME280;3848;42.016;23.098;2024-02-14T13:09:41;97186.19;;;9.28;97.08
7614;BME280;3848;42.016;23.098;2024-02-14T13:12:11;97179.44;;;9.27;97.50
7614;BME280;3848;42.016;23.098;2024-02-14T13:14:39;97155.81;;;9.19;100.00
7614;BME280;3848;42.016;23.098;2024-02-14T13:17:06;97170.13;;;9.30;98.83
7614;BME280;3848;42.016;23.098;2024-02-14T13:19:34;97181.94;;;9.34;96.34